Time;durP1;ratioP1;P1;durP2;ratioP2;P2;SDS_P1;SDS_P2;PMS_P1;PMS_P2;Temp;Humidity;BMP_temperature;BMP_pressure;BME280_temperature;BME280_humidity;BME280_pressure;Samples;Min_cycle;Max_cycle;Signal;HPM_P1;HPM_P2
2022/12/12 08:06:40;;;;;;;3.53;2.20;;;20.90;45.20;;;;;;5101725;27;20556;-41
2022/12/12 08:09:06;;;;;;;4.10;3.00;;;21.00;45.80;;;;;;5060773;28;20241;-42
2022/12/12 08:11:33;;;;;;;22.57;16.77;;;21.00;46.40;;;;;;5041765;28;20213;-38
2022/12/12 08:13:59;;;;;;;12.87;6.33;;;21.00;46.50;;;;;;5041153;28;20201;-43
2022/12/12 08:16:26;;;;;;;7.77;4.80;;;21.10;47.00;;;;;;5038167;28;20276;-40
2022/12/12 08:18:52;;;;;;;7.47;4.47;;;21.10;47.20;;;;;;5042488;28;20224;-47
2022/12/12 08:21:19;;;;;;;7.97;4.13;;;21.10;47.40;;;;;;5042295;28;20744;-44
2022/12/12 08:23:45;;;;;;;7.75;3.78;;;21.10;47.00;;;;;;5041239;28;20654;-44
2022/12/12 08:26:12;;;;;;;5.85;3.30;;;21.20;47.30;;;;;;5044595;28;20320;-35
2022/12/12 08:28:40;;;;;;;4.93;3.10;;;21.20;47.10;;;;;;5043677;28;20233;-50
2022/12/12 08:31:06;;;;;;;5.75;2.90;;;21.20;47.20;;;;;;5042283;28;20300;-38
2022/12/12 08:33:32;;;;;;;5.93;3.13;;;21.20;47.10;;;;;;5043102;28;20202;-50
2022/12/12 08:35:59;;;;;;;5.10;3.20;;;21.20;47.10;;;;;;5046232;28;20575;-38
2022/12/12 08:38:25;;;;;;;4.60;2.35;;;21.20;47.20;;;;;;5046381;28;20391;-39
2022/12/12 08:40:52;;;;;;;3.53;2.55;;;21.20;47.70;;;;;;5046697;28;20702;-36
2022/12/12 08:43:18;;;;;;;3.80;2.50;;;21.20;47.10;;;;;;5045400;28;20222;-42
2022/12/12 08:45:45;;;;;;;3.78;2.55;;;21.30;47.20;;;;;;5047114;28;20708;-52
2022/12/12 08:48:11;;;;;;;4.88;2.78;;;21.40;47.30;;;;;;5044603;28;20226;-56
2022/12/12 08:50:38;;;;;;;6.32;2.30;;;21.30;47.10;;;;;;5040930;28;20202;-51
2022/12/12 08:53:04;;;;;;;4.10;2.40;;;21.30;47.10;;;;;;5039233;28;20511;-54
2022/12/12 08:55:30;;;;;;;4.00;2.55;;;21.30;47.10;;;;;;5040795;28;20745;-49
2022/12/12 08:57:57;;;;;;;3.55;3.25;;;21.40;47.30;;;;;;5039147;28;20315;-53
2022/12/12 09:00:23;;;;;;;7.10;4.20;;;21.10;39.20;;;;;;5040296;28;20249;-48
2022/12/12 09:02:50;;;;;;;4.03;3.63;;;20.80;39.40;;;;;;5039675;28;20557;-48
2022/12/12 09:05:16;;;;;;;4.47;3.13;;;20.90;41.00;;;;;;5043227;28;20712;-47
2022/12/12 09:07:43;;;;;;;3.40;2.63;;;21.00;43.00;;;;;;5042193;28;20206;-47
2022/12/12 09:10:09;;;;;;;3.75;3.00;;;21.20;43.40;;;;;;5039722;28;20217;-49
2022/12/12 09:12:36;;;;;;;5.13;2.58;;;21.30;43.90;;;;;;5041448;28;20208;-50
2022/12/12 09:15:02;;;;;;;3.60;2.53;;;21.30;44.00;;;;;;5043358;28;20209;-48
2022/12/12 09:17:28;;;;;;;4.03;3.05;;;21.40;44.00;;;;;;5033575;28;20297;-51
2022/12/12 09:19:55;;;;;;;4.82;2.60;;;21.40;44.20;;;;;;5033469;28;20199;-49
2022/12/12 09:22:21;;;;;;;3.05;2.47;;;21.40;44.20;;;;;;5033207;28;20210;-50
2022/12/12 09:24:48;;;;;;;2.85;2.10;;;21.40;44.20;;;;;;4971484;28;20239;-47
2022/12/12 09:27:14;;;;;;;4.13;2.50;;;21.50;44.50;;;;;;5010001;28;20202;-49
2022/12/12 09:29:41;;;;;;;3.70;2.72;;;21.50;44.40;;;;;;5011881;28;20203;-54
2022/12/12 09:32:08;;;;;;;4.40;2.50;;;21.50;44.70;;;;;;5011800;28;20210;-48
2022/12/12 09:34:34;;;;;;;2.97;2.35;;;21.50;44.70;;;;;;5012322;28;20235;-58
2022/12/12 09:37:01;;;;;;;2.92;2.35;;;21.60;44.80;;;;;;5012420;28;21950;-47
2022/12/12 09:39:27;;;;;;;2.78;2.10;;;21.60;44.80;;;;;;5004931;28;20568;-44
2022/12/12 09:41:53;;;;;;;2.83;2.20;;;21.60;44.80;;;;;;5005319;28;20206;-51
2022/12/12 09:44:21;;;;;;;4.10;2.10;;;21.60;44.70;;;;;;5008943;28;20195;-48
2022/12/12 09:46:47;;;;;;;2.50;2.22;;;21.60;45.20;;;;;;5004009;28;20223;-49
2022/12/12 09:49:14;;;;;;;3.35;2.30;;;21.60;45.10;;;;;;5009460;28;20238;-55
2022/12/12 09:51:40;;;;;;;2.63;2.10;;;21.50;45.30;;;;;;5005543;28;20583;-57
2022/12/12 09:54:07;;;;;;;2.70;2.15;;;21.50;45.40;;;;;;5011265;28;20575;-53
2022/12/12 09:56:33;;;;;;;2.40;2.20;;;21.50;45.40;;;;;;5010167;28;20682;-48
2022/12/12 09:59:00;;;;;;;3.88;2.30;;;21.50;45.40;;;;;;5013912;28;20231;-51
2022/12/12 10:01:26;;;;;;;4.07;2.20;;;21.40;45.40;;;;;;5009477;28;20322;-51
2022/12/12 10:03:52;;;;;;;2.10;1.90;;;21.40;45.50;;;;;;4999807;28;20211;-50
2022/12/12 10:06:19;;;;;;;3.28;1.90;;;21.40;45.80;;;;;;5004192;28;20349;-52
2022/12/12 10:08:46;;;;;;;2.78;2.10;;;21.40;45.80;;;;;;5008815;28;20227;-52
2022/12/12 10:11:48;;;;;;;2.75;2.00;;;21.40;46.00;;;;;;5010133;28;20247;-52
2022/12/12 10:13:59;;;;;;;2.90;1.90;;;21.40;46.10;;;;;;5006968;28;20254;-51
2022/12/12 10:16:25;;;;;;;3.10;1.90;;;21.40;46.20;;;;;;5007870;28;20199;-53
2022/12/12 10:18:52;;;;;;;2.15;1.80;;;21.40;46.10;;;;;;5003114;28;20227;-49
